Tue, 30 Nov 2021 02:23:59 UTC

Information for RPM apache-commons-validator-1.3.1-9.fc18.noarch.rpm

ID3207772
Nameapache-commons-validator
Version1.3.1
Release9.fc18
Epoch
Archnoarch
SummaryApache Commons Validator
DescriptionA common issue when receiving data either electronically or from user input is verifying the integrity of the data. This work is repetitive and becomes even more complicated when different sets of validation rules need to be applied to the same set of data based on locale for example. Error messages may also vary by locale. This package attempts to address some of these issues and speed development and maintenance of validation rules.
Build Time2012-07-18 23:18:53 GMT
Size134,172
d0ddf7a7429009e2b317ac15c29d03dd
LicenseASL 2.0
Buildrootf18-build-1388037-228236
Provides
apache-commons-validator = 1.3.1-9.fc18
jakarta-commons-validator = 0:1.3.1-9.fc18
Obsoletes
jakarta-commons-validator < 0:1.3.1-2
Conflicts No Conflicts
Requires
apache-commons-beanutils
apache-commons-digester
apache-commons-logging
jakarta-oro
java >= 1:1.6.0
jpackage-utils
jpackage-utils
jpackage-utils
rpmlib(CompressedFileNames) <= 3.0.4-1
rpmlib(FileDigests) <= 4.6.0-1
rpmlib(PayloadFilesHavePrefix) <= 4.0-1
rpmlib(PayloadIsXz) <= 5.2-1
Recommends No Recommends
Suggests No Suggests
Supplements No Supplements
Enhances No Enhances
Files
1 through 6 of 6
Name ascending sort Size
/usr/share/doc/apache-commons-validator-1.3.14,096
/usr/share/doc/apache-commons-validator-1.3.1/LICENSE.txt11,358
/usr/share/doc/apache-commons-validator-1.3.1/NOTICE.txt186
/usr/share/doc/apache-commons-validator-1.3.1/RELEASE-NOTES.txt1,727
/usr/share/java/apache-commons-validator.jar139,841
/usr/share/java/commons-validator.jar28
Component of
Page:
1 through 50 of 2183 >>>
Buildroot descending sort Created State
f18-build-1942201-342350 2013-12-16 06:49:08 expired
f18-build-1942200-342350 2013-12-16 06:49:06 expired
f18-build-1922587-337763 2013-11-26 07:28:36 expired
f18-build-1920399-337356 2013-11-23 21:00:14 expired
f18-build-1911320-335197 2013-11-15 01:36:57 expired
f18-build-1897292-331643 2013-11-01 07:47:29 expired
f18-build-1897288-331643 2013-11-01 07:20:26 expired
f18-build-1893718-330823 2013-10-28 18:43:26 expired
f18-build-1893717-330823 2013-10-28 18:43:25 expired
f18-build-1892960-330640 2013-10-27 21:38:52 expired
f18-build-1885831-328891 2013-10-18 23:21:27 expired
f18-build-1885762-328853 2013-10-18 22:59:16 expired
f18-build-1881228-327971 2013-10-14 16:46:27 expired
f18-build-1879758-327612 2013-10-12 18:22:09 expired
f18-build-1879757-327612 2013-10-12 18:22:09 expired
f18-build-1878993-327380 2013-10-11 10:07:37 expired
f18-build-1877488-327042 2013-10-09 17:03:22 expired
f18-build-1877475-327042 2013-10-09 16:52:57 expired
f18-build-1877388-327027 2013-10-09 15:59:40 expired
f18-build-1867638-324894 2013-09-30 11:56:34 expired
f18-build-1858710-323188 2013-09-23 08:12:08 expired
f18-build-1858696-323188 2013-09-23 07:59:42 expired
f18-build-1852066-321801 2013-09-16 20:32:09 expired
f18-build-1852065-321801 2013-09-16 20:32:08 expired
f18-build-1845513-320430 2013-09-10 13:30:32 expired
f18-build-1829776-316980 2013-08-28 15:22:34 expired
f18-build-1826632-316349 2013-08-26 14:55:05 expired
f18-build-1818093-314333 2013-08-18 17:58:20 expired
f18-build-1817928-314269 2013-08-18 09:25:07 expired
f18-build-1817927-314269 2013-08-18 09:25:07 expired
f18-build-1815483-313774 2013-08-15 03:41:27 expired
f18-build-1814788-313606 2013-08-14 12:55:31 expired
f18-build-1805905-312044 2013-08-06 17:47:13 expired
f18-build-1805463-312000 2013-08-06 14:24:29 expired
f18-build-1805421-312000 2013-08-06 14:10:45 expired
f18-build-1805373-312000 2013-08-06 13:55:02 expired
f18-build-1805169-311906 2013-08-06 11:24:44 expired
f18-build-1794424-311548 2013-08-04 09:11:55 expired
f18-build-1761998-311348 2013-08-02 21:21:44 expired
f18-build-1761997-311348 2013-08-02 21:21:44 expired
f18-build-1761972-311348 2013-08-02 21:07:04 expired
f18-build-1761971-311348 2013-08-02 21:07:04 expired
f18-build-1761144-311188 2013-08-02 05:30:40 expired
f18-build-1761143-311188 2013-08-02 05:30:39 expired
f18-build-1760344-311037 2013-08-01 11:30:24 expired
f18-build-1760250-311037 2013-08-01 10:15:29 expired
f18-build-1760180-310997 2013-08-01 09:39:11 expired
f18-build-1760075-310997 2013-08-01 08:20:35 expired
f18-build-1759988-310957 2013-08-01 06:49:28 expired
f18-build-1759141-310811 2013-07-31 13:39:04 expired